Time;durP1;ratioP1;P1;durP2;ratioP2;P2;SDS_P1;SDS_P2;PMS_P1;PMS_P2;Temp;Humidity;BMP_temperature;BMP_pressure;BME280_temperature;BME280_humidity;BME280_pressure;Samples;Min_cycle;Max_cycle;Signal;HPM_P1;HPM_P2
2023/07/01 00:01:44;;;;;;;6.78;6.07;;;19.00;99.90;;;;;;10364352;28;20280;-80
2023/07/01 00:06:47;;;;;;;10.38;6.40;;;19.00;99.90;;;;;;10330029;28;20303;-80
2023/07/01 00:11:50;;;;;;;8.43;5.75;;;18.80;99.90;;;;;;10367529;28;20268;-80
2023/07/01 00:16:54;;;;;;;9.57;6.93;;;18.70;99.90;;;;;;10370381;28;20619;-80
2023/07/01 00:21:57;;;;;;;6.55;5.70;;;18.50;99.90;;;;;;10366009;28;20240;-80
2023/07/01 00:27:00;;;;;;;10.60;6.38;;;18.40;99.90;;;;;;10369919;28;20248;-80
2023/07/01 00:32:02;;;;;;;7.22;6.18;;;18.40;99.90;;;;;;10360295;28;20291;-80
2023/07/01 00:37:05;;;;;;;6.30;5.70;;;18.40;99.90;;;;;;10371091;28;20723;-80
2023/07/01 00:42:08;;;;;;;8.15;5.47;;;18.50;99.90;;;;;;10369506;28;20252;-80
2023/07/01 00:47:10;;;;;;;5.20;4.70;;;18.60;99.90;;;;;;10337108;28;20264;-80
2023/07/01 00:52:13;;;;;;;7.18;5.85;;;18.50;99.90;;;;;;10362467;28;20290;-80
2023/07/01 00:57:16;;;;;;;7.35;6.18;;;18.40;99.90;;;;;;10370178;28;20693;-80
2023/07/01 01:02:25;;;;;;;7.85;6.43;;;18.20;99.90;;;;;;10343721;28;20256;-80
2023/07/01 01:07:45;;;;;;;7.53;6.57;;;18.20;99.90;;;;;;10328261;28;20237;-80
2023/07/01 01:12:50;;;;;;;6.15;5.53;;;18.10;99.90;;;;;;10329550;28;20264;-80
2023/07/01 01:17:58;;;;;;;8.55;6.57;;;18.00;99.90;;;;;;10326292;28;20244;-80
2023/07/01 01:23:13;;;;;;;6.82;6.13;;;18.10;99.90;;;;;;10362335;28;20220;-80
2023/07/01 01:28:16;;;;;;;6.35;5.75;;;18.20;99.90;;;;;;10363116;28;20244;-80
2023/07/01 01:33:18;;;;;;;6.93;6.07;;;18.30;99.90;;;;;;10328004;28;20316;-80
2023/07/01 01:38:26;;;;;;;6.15;5.40;;;18.30;99.90;;;;;;10325653;28;20237;-80
2023/07/01 01:43:37;;;;;;;5.10;4.22;;;18.30;99.90;;;;;;10326171;28;20245;-80
2023/07/01 01:48:40;;;;;;;4.55;4.15;;;18.40;99.90;;;;;;10327926;28;20772;-80
2023/07/01 01:53:43;;;;;;;5.55;5.05;;;18.50;99.90;;;;;;10327586;28;20349;-80
2023/07/01 01:58:47;;;;;;;10.40;5.80;;;18.60;99.90;;;;;;10351771;28;20268;-80
2023/07/01 02:03:50;;;;;;;8.35;5.00;;;18.60;99.90;;;;;;10327313;28;20295;-80
2023/07/01 02:08:53;;;;;;;6.05;4.80;;;18.60;99.90;;;;;;10327633;28;20282;-80
2023/07/01 02:13:55;;;;;;;11.27;5.40;;;18.50;99.90;;;;;;10365970;28;20632;-80
2023/07/01 02:18:58;;;;;;;6.75;5.50;;;18.40;99.90;;;;;;10336013;28;20699;-80
2023/07/01 02:24:01;;;;;;;7.97;5.07;;;18.20;99.90;;;;;;10354984;28;20248;-80
2023/07/01 02:29:03;;;;;;;6.10;4.15;;;18.30;99.90;;;;;;10339542;28;20268;-80
2023/07/01 02:34:06;;;;;;;4.72;4.13;;;18.20;99.90;;;;;;10324922;28;20244;-80
2023/07/01 02:39:09;;;;;;;7.80;4.50;;;18.10;99.90;;;;;;10344322;28;20247;-80
2023/07/01 02:44:12;;;;;;;6.07;4.55;;;18.00;99.90;;;;;;10366188;28;20635;-79
2023/07/01 02:49:14;;;;;;;4.97;4.55;;;17.80;99.90;;;;;;10365414;28;20291;-79
2023/07/01 02:54:17;;;;;;;5.30;4.35;;;17.60;99.90;;;;;;10339888;28;20240;-80
2023/07/01 02:59:20;;;;;;;5.88;4.30;;;17.40;99.90;;;;;;10325108;28;20240;-80
2023/07/01 03:04:22;;;;;;;7.35;4.55;;;17.30;99.90;;;;;;10324680;28;20263;-80
2023/07/01 03:09:25;;;;;;;4.82;4.30;;;17.20;99.90;;;;;;10324118;28;20256;-80
2023/07/01 03:14:27;;;;;;;5.78;3.90;;;17.10;99.90;;;;;;10325677;28;20209;-80
2023/07/01 03:19:30;;;;;;;9.63;4.88;;;17.30;99.90;;;;;;10324253;28;20225;-80
2023/07/01 03:24:33;;;;;;;4.85;4.40;;;17.20;99.90;;;;;;10336933;28;20287;-80
2023/07/01 03:29:37;;;;;;;5.13;4.63;;;17.00;99.90;;;;;;10324004;28;20252;-80
2023/07/01 03:34:39;;;;;;;14.93;6.00;;;17.10;99.90;;;;;;10324202;28;20244;-80
2023/07/01 03:39:42;;;;;;;6.10;3.78;;;17.00;99.90;;;;;;10329359;28;20245;-80
2023/07/01 03:44:44;;;;;;;9.32;5.22;;;17.00;99.90;;;;;;10331813;28;20290;-80
2023/07/01 03:49:47;;;;;;;3.47;3.17;;;17.20;99.90;;;;;;10332403;28;20331;-80
2023/07/01 03:54:50;;;;;;;4.60;4.00;;;17.20;99.90;;;;;;10332495;28;20713;-80
2023/07/01 03:59:53;;;;;;;6.20;3.70;;;17.30;99.90;;;;;;10333695;28;20240;-80
2023/07/01 04:05:09;;;;;;;3.22;2.92;;;17.50;99.90;;;;;;10372798;28;20248;-80
2023/07/01 04:10:13;;;;;;;4.93;2.88;;;17.70;99.90;;;;;;10337614;28;20256;-80
2023/07/01 04:15:16;;;;;;;4.70;3.90;;;17.80;99.90;;;;;;10330575;28;20232;-80
2023/07/01 04:20:21;;;;;;;7.40;3.45;;;17.80;99.90;;;;;;10329549;28;20651;-80
2023/07/01 04:25:24;;;;;;;4.22;3.30;;;17.60;99.90;;;;;;10356336;28;20243;-80
2023/07/01 04:30:26;;;;;;;5.63;3.80;;;17.60;99.90;;;;;;10367063;28;20260;-80
2023/07/01 04:49:52;;;;;;;5.05;3.42;;;17.60;99.90;;;;;;10565950;27;20925;-78
2023/07/01 04:54:55;;;;;;;5.63;4.07;;;17.80;99.90;;;;;;10526996;28;20667;-78
2023/07/01 04:59:58;;;;;;;4.85;3.00;;;17.70;99.90;;;;;;10552311;27;20277;-79
2023/07/01 05:05:01;;;;;;;6.05;3.30;;;17.60;99.90;;;;;;10527649;28;20277;-79
2023/07/01 05:10:04;;;;;;;6.32;3.00;;;17.80;99.90;;;;;;10540043;28;20287;-79
2023/07/01 05:15:07;;;;;;;4.25;2.30;;;18.00;99.90;;;;;;10506110;28;20261;-80
2023/07/01 05:20:10;;;;;;;5.10;2.92;;;18.10;99.90;;;;;;10510566;28;20225;-80
2023/07/01 05:25:13;;;;;;;3.63;2.60;;;18.30;99.90;;;;;;10507343;28;20263;-80
2023/07/01 05:30:16;;;;;;;3.72;2.25;;;18.50;99.90;;;;;;10524283;28;20233;-80
2023/07/01 05:35:18;;;;;;;2.40;2.20;;;18.60;99.90;;;;;;10533148;28;20645;-78
2023/07/01 05:40:21;;;;;;;4.50;2.20;;;18.80;99.90;;;;;;10565911;28;20244;-78
2023/07/01 05:45:24;;;;;;;7.95;2.30;;;18.90;99.90;;;;;;10566168;28;20663;-78
2023/07/01 05:50:26;;;;;;;4.03;2.35;;;18.90;99.90;;;;;;10471624;28;20612;-80
2023/07/01 05:55:29;;;;;;;2.10;1.60;;;18.80;99.90;;;;;;10486469;28;20249;-80
2023/07/01 06:00:31;;;;;;;3.28;2.50;;;18.70;99.90;;;;;;10519004;28;20222;-80
2023/07/01 06:05:34;;;;;;;3.35;2.63;;;18.70;99.90;;;;;;10492629;28;20226;-79
2023/07/01 06:10:37;;;;;;;3.25;2.95;;;18.80;99.90;;;;;;10488515;28;20287;-80
2023/07/01 06:15:39;;;;;;;2.05;1.85;;;18.70;99.90;;;;;;10513918;28;20253;-80
2023/07/01 06:20:43;;;;;;;2.75;2.15;;;18.80;99.90;;;;;;10513480;28;20230;-80
2023/07/01 06:25:45;;;;;;;3.50;1.88;;;18.90;99.60;;;;;;10511700;28;20251;-80
2023/07/01 06:30:48;;;;;;;2.15;1.45;;;19.20;98.80;;;;;;10496021;28;20233;-80
2023/07/01 06:35:51;;;;;;;4.47;1.90;;;19.40;96.20;;;;;;10512672;28;20727;-82
2023/07/01 06:40:54;;;;;;;2.80;1.75;;;19.70;97.10;;;;;;10504289;28;20276;-81
2023/07/01 06:45:56;;;;;;;5.40;1.85;;;19.90;96.10;;;;;;10493958;28;20261;-80
2023/07/01 06:50:59;;;;;;;3.63;1.88;;;20.10;96.00;;;;;;10494338;28;20230;-80
2023/07/01 06:56:02;;;;;;;2.70;2.50;;;20.50;94.50;;;;;;10507589;28;20261;-80
2023/07/01 07:01:04;;;;;;;2.78;2.58;;;20.80;96.20;;;;;;10510905;28;20299;-80
2023/07/01 07:06:07;;;;;;;3.42;2.53;;;20.90;93.00;;;;;;10497411;28;20230;-80
2023/07/01 07:11:09;;;;;;;3.53;2.55;;;21.30;93.60;;;;;;10473140;28;20287;-80
2023/07/01 07:16:12;;;;;;;3.22;2.35;;;21.60;92.00;;;;;;10497770;28;20691;-80
2023/07/01 07:21:15;;;;;;;16.40;2.70;;;21.50;90.20;;;;;;10534046;28;20625;-80
2023/07/01 07:26:17;;;;;;;5.82;2.53;;;21.70;92.40;;;;;;10479541;28;20621;-80
2023/07/01 07:31:20;;;;;;;2.58;2.38;;;21.90;90.80;;;;;;10490258;28;20733;-80
2023/07/01 07:36:22;;;;;;;3.17;2.90;;;22.10;92.70;;;;;;10469256;28;20257;-80
2023/07/01 07:41:26;;;;;;;2.85;2.65;;;22.40;92.20;;;;;;10496981;28;20256;-80
2023/07/01 07:46:28;;;;;;;7.40;2.70;;;22.60;91.50;;;;;;10473220;28;20323;-80
2023/07/01 07:51:31;;;;;;;5.55;3.30;;;22.60;89.80;;;;;;10499638;28;20699;-80
2023/07/01 07:56:34;;;;;;;4.43;2.53;;;22.70;90.70;;;;;;10533234;28;20299;-81
2023/07/01 08:01:37;;;;;;;2.90;2.67;;;22.60;86.60;;;;;;10532552;28;20258;-81
2023/07/01 08:06:39;;;;;;;3.20;2.97;;;22.70;89.30;;;;;;10487143;28;20682;-80
2023/07/01 08:11:42;;;;;;;4.93;2.75;;;22.50;86.30;;;;;;10463596;28;20639;-80
2023/07/01 08:16:44;;;;;;;2.60;2.40;;;22.60;88.00;;;;;;10477033;28;20619;-80
2023/07/01 08:21:47;;;;;;;4.95;2.53;;;22.70;90.20;;;;;;10495227;28;20230;-82
2023/07/01 08:26:55;;;;;;;2.88;2.35;;;22.60;84.40;;;;;;10480973;28;20295;-83
2023/07/01 08:31:59;;;;;;;6.78;2.67;;;22.70;87.90;;;;;;10471141;28;20202;-83
2023/07/01 08:37:03;;;;;;;6.00;3.15;;;22.80;84.20;;;;;;10430630;22;20268;-92
2023/07/01 08:42:09;;;;;;;4.68;2.40;;;22.70;84.60;;;;;;10365282;28;20275;-94
2023/07/01 08:47:13;;;;;;;4.28;3.58;;;22.70;85.80;;;;;;10365783;28;20617;-93
2023/07/01 08:52:19;;;;;;;3.38;2.33;;;22.60;78.50;;;;;;10348311;28;20251;-93
2023/07/01 08:57:21;;;;;;;4.47;3.38;;;22.70;83.40;;;;;;10366550;28;20256;-94
2023/07/01 09:02:25;;;;;;;3.15;2.85;;;22.70;78.70;;;;;;10359607;23;20334;-80
2023/07/01 09:07:29;;;;;;;4.15;3.85;;;22.80;86.80;;;;;;10314529;28;20688;-80
2023/07/01 09:12:31;;;;;;;5.13;2.83;;;22.90;81.50;;;;;;10304586;28;20237;-81
2023/07/01 09:17:40;;;;;;;3.13;2.60;;;22.90;80.40;;;;;;10267601;28;20260;-82
2023/07/01 09:22:43;;;;;;;7.57;3.85;;;23.00;79.40;;;;;;10302550;28;20296;-80
2023/07/01 09:27:46;;;;;;;3.80;3.50;;;22.80;74.70;;;;;;10314212;28;20228;-80
2023/07/01 09:32:49;;;;;;;6.90;4.32;;;22.80;79.50;;;;;;10312630;28;20690;-80
2023/07/01 09:38:01;;;;;;;4.68;4.00;;;23.20;83.10;;;;;;10324732;28;20252;-79
2023/07/01 09:43:04;;;;;;;5.32;3.95;;;23.40;77.50;;;;;;10288729;28;20291;-83
2023/07/01 09:48:12;;;;;;;4.50;3.53;;;23.70;79.20;;;;;;10292466;28;20255;-84
2023/07/01 09:53:24;;;;;;;3.92;3.45;;;23.70;76.00;;;;;;10292178;28;20205;-84
2023/07/01 09:58:27;;;;;;;4.43;3.28;;;23.90;70.50;;;;;;10292143;28;20316;-84
2023/07/01 10:03:30;;;;;;;7.25;3.60;;;23.80;71.40;;;;;;10311813;28;20284;-83
2023/07/01 10:08:33;;;;;;;4.97;3.40;;;23.80;70.00;;;;;;10313950;28;20729;-83
2023/07/01 10:13:46;;;;;;;4.97;3.38;;;23.80;71.10;;;;;;10314632;28;20244;-84
2023/07/01 10:18:50;;;;;;;4.40;4.00;;;23.80;70.00;;;;;;10330779;28;20332;-84
2023/07/01 10:23:55;;;;;;;5.93;3.40;;;23.80;69.30;;;;;;10331072;28;20670;-84
2023/07/01 10:28:58;;;;;;;5.60;3.70;;;23.90;70.00;;;;;;10313541;28;20685;-84
2023/07/01 10:34:01;;;;;;;4.28;3.30;;;24.10;68.20;;;;;;10330659;28;20236;-84
2023/07/01 10:39:35;;;;;;;7.88;4.50;;;24.20;68.20;;;;;;10312939;28;20265;-84
2023/07/01 10:44:38;;;;;;;4.07;2.95;;;24.40;65.50;;;;;;10330878;28;20233;-83
2023/07/01 10:50:00;;;;;;;3.78;2.85;;;24.50;64.50;;;;;;10330336;28;20286;-84
2023/07/01 10:55:22;;;;;;;4.60;4.00;;;24.60;63.00;;;;;;10312298;28;20239;-83
2023/07/01 11:00:35;;;;;;;2.80;2.60;;;24.50;61.00;;;;;;10329816;28;20691;-83
2023/07/01 11:05:56;;;;;;;3.53;3.22;;;24.50;63.50;;;;;;10311591;28;20419;-83
2023/07/01 11:10:59;;;;;;;7.03;3.10;;;24.70;61.60;;;;;;10329468;28;20298;-83
2023/07/01 11:16:07;;;;;;;3.50;2.60;;;24.90;61.90;;;;;;10296147;28;20205;-84
2023/07/01 11:21:12;;;;;;;3.63;2.50;;;24.80;60.90;;;;;;10329176;28;20232;-84
2023/07/01 11:26:20;;;;;;;4.03;3.60;;;24.70;60.90;;;;;;10327759;28;20694;-84
2023/07/01 11:31:25;;;;;;;4.13;3.40;;;24.60;51.60;;;;;;10311484;28;20287;-84
2023/07/01 11:36:42;;;;;;;4.75;3.97;;;24.60;59.60;;;;;;10310672;28;20693;-84
2023/07/01 11:41:52;;;;;;;3.13;2.83;;;24.50;60.30;;;;;;10328253;28;20224;-83
2023/07/01 11:46:55;;;;;;;2.60;2.40;;;24.70;61.60;;;;;;10310747;28;20682;-84
2023/07/01 11:52:03;;;;;;;3.72;3.42;;;24.90;60.10;;;;;;10328052;28;20259;-83
2023/07/01 11:57:16;;;;;;;4.05;3.45;;;25.00;60.50;;;;;;10327576;28;20716;-83
2023/07/01 12:02:29;;;;;;;5.38;4.60;;;25.10;57.80;;;;;;10309130;28;20264;-83
2023/07/01 12:07:32;;;;;;;3.40;3.10;;;25.00;57.80;;;;;;10293568;28;20248;-83
2023/07/01 12:12:34;;;;;;;2.95;2.75;;;24.90;59.10;;;;;;10327298;28;20293;-84
2023/07/01 12:17:37;;;;;;;5.03;3.80;;;24.90;61.00;;;;;;10326777;28;20291;-83
2023/07/01 12:22:39;;;;;;;4.82;4.28;;;24.70;60.20;;;;;;10308859;28;20232;-83
2023/07/01 12:27:42;;;;;;;4.22;3.83;;;24.80;60.50;;;;;;10326756;28;20233;-83
2023/07/01 12:32:48;;;;;;;7.13;5.53;;;24.90;61.70;;;;;;10326840;28;20236;-83
2023/07/01 12:37:56;;;;;;;8.52;6.15;;;25.00;62.50;;;;;;10308363;28;20689;-83
2023/07/01 12:42:58;;;;;;;7.18;5.10;;;25.00;61.80;;;;;;10326540;28;20286;-83
2023/07/01 12:48:05;;;;;;;5.40;4.00;;;25.20;61.60;;;;;;10308885;28;20236;-83
2023/07/01 12:53:07;;;;;;;6.00;5.35;;;25.40;61.30;;;;;;10325604;28;20633;-83
2023/07/01 12:58:10;;;;;;;4.65;4.18;;;25.40;56.20;;;;;;10328389;28;20256;-83
2023/07/01 13:03:13;;;;;;;4.90;4.40;;;25.40;57.20;;;;;;10334299;28;20253;-83
2023/07/01 13:08:19;;;;;;;6.18;4.32;;;25.40;56.80;;;;;;10316883;28;20237;-83
2023/07/01 13:13:21;;;;;;;6.15;4.78;;;25.30;56.50;;;;;;10333907;28;20287;-83
2023/07/01 13:18:24;;;;;;;2.95;2.65;;;25.10;57.60;;;;;;10333798;28;20644;-83
2023/07/01 13:23:28;;;;;;;5.57;4.88;;;25.10;58.10;;;;;;10315777;28;20236;-83
2023/07/01 13:28:33;;;;;;;5.55;4.88;;;25.10;59.60;;;;;;10332745;28;20248;-83
2023/07/01 13:33:38;;;;;;;6.75;5.43;;;25.00;57.50;;;;;;10316150;28;20232;-83
2023/07/01 13:38:41;;;;;;;4.15;3.75;;;24.80;59.10;;;;;;10315714;28;20257;-83
2023/07/01 13:43:43;;;;;;;3.70;3.38;;;24.80;57.50;;;;;;10333407;28;20224;-83
2023/07/01 13:48:49;;;;;;;3.58;2.80;;;24.80;57.50;;;;;;10315610;28;20259;-83
2023/07/01 13:53:51;;;;;;;3.10;2.80;;;24.80;59.60;;;;;;10315093;28;20279;-83
2023/07/01 13:58:54;;;;;;;4.97;4.28;;;24.80;58.20;;;;;;10332360;28;20248;-84
2023/07/01 14:04:00;;;;;;;8.25;5.22;;;24.80;57.00;;;;;;10332297;28;20248;-84
2023/07/01 14:09:03;;;;;;;5.68;4.85;;;24.80;58.00;;;;;;10331277;28;20291;-83
2023/07/01 14:14:06;;;;;;;4.50;4.05;;;24.70;56.70;;;;;;10331836;28;20233;-83
2023/07/01 14:19:08;;;;;;;4.63;4.03;;;24.60;54.40;;;;;;10313753;28;20328;-83
2023/07/01 14:24:19;;;;;;;5.45;4.93;;;24.70;56.60;;;;;;10313295;28;20244;-83
2023/07/01 14:29:22;;;;;;;4.85;3.17;;;24.90;55.20;;;;;;10330271;28;20232;-84
2023/07/01 14:34:37;;;;;;;4.25;3.67;;;24.80;54.60;;;;;;10313329;28;20236;-84
2023/07/01 14:39:53;;;;;;;3.88;3.45;;;24.50;57.10;;;;;;10330687;28;20822;-83
2023/07/01 14:44:58;;;;;;;3.90;3.17;;;24.60;56.30;;;;;;10313178;28;20233;-84
2023/07/01 14:50:00;;;;;;;3.38;3.08;;;24.70;57.10;;;;;;10312764;28;20236;-84
2023/07/01 14:55:03;;;;;;;3.78;3.35;;;24.60;56.90;;;;;;10329960;28;20244;-83
2023/07/01 15:00:07;;;;;;;4.97;3.60;;;24.40;57.10;;;;;;10312519;28;20705;-83
2023/07/01 15:05:09;;;;;;;5.90;4.43;;;24.30;54.90;;;;;;10328983;28;20621;-84
2023/07/01 15:10:12;;;;;;;3.75;3.10;;;24.40;56.00;;;;;;10329389;28;20263;-83
2023/07/01 15:15:14;;;;;;;4.28;3.88;;;24.60;55.60;;;;;;10329567;28;20236;-84
2023/07/01 15:20:17;;;;;;;4.68;3.90;;;24.40;56.60;;;;;;10328267;28;20248;-84
2023/07/01 15:25:19;;;;;;;3.90;3.50;;;24.40;58.00;;;;;;10310962;28;20241;-84
2023/07/01 15:30:22;;;;;;;3.95;3.28;;;24.20;58.60;;;;;;10328298;28;20236;-83
2023/07/01 15:35:25;;;;;;;3.95;3.55;;;24.10;60.00;;;;;;10327908;28;20240;-84
2023/07/01 15:40:30;;;;;;;3.78;3.38;;;24.30;58.20;;;;;;10327612;28;20256;-83
2023/07/01 15:45:34;;;;;;;3.55;3.25;;;24.30;57.70;;;;;;10327366;28;20240;-83
2023/07/01 15:50:36;;;;;;;5.90;3.75;;;24.30;58.50;;;;;;10294642;28;20616;-84
2023/07/01 15:55:39;;;;;;;10.73;5.88;;;24.20;58.40;;;;;;10330350;23;20255;-84
2023/07/01 16:00:41;;;;;;;8.32;4.95;;;24.10;52.60;;;;;;10365892;28;20256;-90
2023/07/01 16:05:44;;;;;;;8.02;5.43;;;24.00;51.00;;;;;;10367818;28;20274;-89
2023/07/01 16:10:50;;;;;;;7.53;5.10;;;24.20;51.30;;;;;;10366313;28;20642;-90
2023/07/01 16:15:59;;;;;;;4.88;4.28;;;24.40;51.50;;;;;;10349154;28;20258;-88
2023/07/01 16:21:04;;;;;;;5.00;4.50;;;24.50;51.10;;;;;;10326038;28;20239;-89
2023/07/01 16:26:08;;;;;;;7.38;4.40;;;24.80;49.90;;;;;;10366887;28;20278;-90
2023/07/01 16:31:16;;;;;;;5.32;4.63;;;25.00;45.50;;;;;;10348733;28;20258;-89
2023/07/01 16:36:30;;;;;;;16.20;4.13;;;25.20;46.10;;;;;;10366947;28;20258;-89
2023/07/01 16:41:33;;;;;;;7.13;4.18;;;25.20;41.70;;;;;;10363073;28;20781;-89
2023/07/01 16:46:38;;;;;;;4.10;3.55;;;25.30;47.60;;;;;;10367917;28;20205;-89
2023/07/01 16:51:41;;;;;;;4.20;3.70;;;25.30;47.30;;;;;;10019331;28;10000524;-90
2023/07/01 16:56:51;;;;;;;3.70;3.28;;;25.20;45.30;;;;;;10006031;28;10001524;-89
2023/07/01 17:01:54;;;;;;;6.07;3.58;;;25.20;40.40;;;;;;10364994;28;20326;-90
2023/07/01 17:06:57;;;;;;;4.75;3.67;;;25.20;48.00;;;;;;10345956;28;21108;-90
2023/07/01 17:11:59;;;;;;;6.03;3.35;;;25.20;45.00;;;;;;10360812;28;21038;-88
2023/07/01 17:17:02;;;;;;;6.57;3.30;;;25.10;38.60;;;;;;10347295;28;20232;-90
2023/07/01 17:22:05;;;;;;;4.93;3.42;;;25.10;47.70;;;;;;10363839;28;20317;-90
2023/07/01 17:27:08;;;;;;;4.13;3.58;;;25.10;47.00;;;;;;10344116;28;20236;-90
2023/07/01 17:32:12;;;;;;;4.55;4.13;;;24.90;48.50;;;;;;10344328;28;20232;-90
2023/07/01 17:37:14;;;;;;;3.45;3.10;;;24.80;48.60;;;;;;10335121;28;20282;-90
2023/07/01 17:42:17;;;;;;;3.72;3.25;;;24.70;50.60;;;;;;10339704;28;20244;-90
2023/07/01 17:47:20;;;;;;;6.70;4.88;;;24.60;51.50;;;;;;10369855;28;20232;-90
2023/07/01 17:52:22;;;;;;;3.92;3.53;;;24.50;48.90;;;;;;10352538;28;20227;-90
2023/07/01 17:57:25;;;;;;;3.53;3.20;;;24.40;52.40;;;;;;10366359;28;20272;-89
2023/07/01 18:02:27;;;;;;;4.00;3.60;;;24.40;54.30;;;;;;10362382;28;20338;-89
2023/07/01 18:07:30;;;;;;;4.32;3.65;;;24.40;53.30;;;;;;10370702;28;20224;-90
2023/07/01 18:12:34;;;;;;;6.28;3.45;;;24.20;53.10;;;;;;10370475;28;20676;-90
2023/07/01 18:17:37;;;;;;;6.45;3.75;;;24.20;55.60;;;;;;10351329;28;20232;-90
2023/07/01 18:22:40;;;;;;;4.20;3.78;;;24.00;49.70;;;;;;10365238;28;20236;-89
2023/07/01 18:27:42;;;;;;;9.43;4.57;;;23.90;53.30;;;;;;10371189;28;20282;-90
2023/07/01 18:32:45;;;;;;;4.72;4.30;;;23.70;48.30;;;;;;10368938;28;20236;-89
2023/07/01 18:37:47;;;;;;;6.53;5.35;;;23.40;54.40;;;;;;10368117;28;20982;-90
2023/07/01 18:42:50;;;;;;;5.97;5.38;;;23.30;51.80;;;;;;10351242;28;20251;-89
2023/07/01 18:47:52;;;;;;;7.00;4.30;;;23.10;52.00;;;;;;10368859;28;20243;-90
2023/07/01 18:52:55;;;;;;;5.03;4.57;;;22.90;55.80;;;;;;10350366;28;20236;-90
2023/07/01 18:57:57;;;;;;;7.00;5.50;;;22.70;56.70;;;;;;10358875;28;20807;-90
2023/07/01 19:03:00;;;;;;;6.20;4.53;;;22.30;60.20;;;;;;10351083;28;20232;-90
2023/07/01 19:08:04;;;;;;;10.20;5.82;;;22.20;62.60;;;;;;10368729;28;20282;-90
2023/07/01 19:13:10;;;;;;;7.95;4.85;;;22.10;61.20;;;;;;10362987;28;20306;-90
2023/07/01 19:18:16;;;;;;;6.82;5.63;;;21.90;64.30;;;;;;10349463;28;20298;-90
2023/07/01 19:23:19;;;;;;;6.45;5.70;;;21.60;67.80;;;;;;10349230;28;20623;-90
2023/07/01 19:28:24;;;;;;;11.93;6.40;;;21.40;69.30;;;;;;10367545;28;20674;-90
2023/07/01 19:33:26;;;;;;;6.35;5.30;;;21.30;76.60;;;;;;10343028;28;20232;-90
2023/07/01 19:38:29;;;;;;;8.75;6.22;;;21.10;77.80;;;;;;10346105;28;20705;-89
2023/07/01 19:43:31;;;;;;;8.30;6.03;;;20.80;85.40;;;;;;10345596;28;20337;-90
2023/07/01 19:48:36;;;;;;;8.10;7.10;;;20.60;87.20;;;;;;10308185;28;20220;-90
2023/07/01 19:53:39;;;;;;;10.45;8.50;;;20.40;90.40;;;;;;10347050;28;20232;-89
2023/07/01 19:58:41;;;;;;;9.38;8.38;;;20.40;90.80;;;;;;10363132;28;20386;-90
2023/07/01 20:03:45;;;;;;;17.10;9.45;;;20.30;91.60;;;;;;10362851;28;20690;-90
2023/07/01 20:08:47;;;;;;;15.80;9.15;;;20.20;92.00;;;;;;10362205;28;20251;-90
2023/07/01 20:13:50;;;;;;;9.13;7.07;;;20.20;92.80;;;;;;10363350;28;20235;-90
2023/07/01 20:18:55;;;;;;;7.55;6.75;;;20.10;93.60;;;;;;10362468;28;21088;-90
2023/07/01 20:23:57;;;;;;;8.45;7.20;;;20.10;93.60;;;;;;10344515;28;20294;-90
2023/07/01 20:29:00;;;;;;;11.80;9.18;;;20.20;94.60;;;;;;10361877;28;20235;-90
2023/07/01 20:34:03;;;;;;;11.70;9.13;;;20.20;94.90;;;;;;10329364;28;20682;-90
2023/07/01 20:39:05;;;;;;;13.50;9.00;;;20.10;95.30;;;;;;10305007;28;20268;-90
2023/07/01 20:44:08;;;;;;;10.18;8.75;;;20.10;95.90;;;;;;10342502;28;20314;-90
2023/07/01 20:49:10;;;;;;;9.60;8.02;;;20.00;95.70;;;;;;10354432;28;20240;-90
2023/07/01 20:54:13;;;;;;;8.88;7.97;;;20.00;95.30;;;;;;10368796;28;20216;-90
2023/07/01 20:59:15;;;;;;;9.18;7.18;;;20.00;94.80;;;;;;10364176;28;20321;-91
2023/07/01 21:04:18;;;;;;;4.60;4.25;;;20.00;96.10;;;;;;10357324;28;20664;-90
2023/07/01 21:09:20;;;;;;;8.75;7.85;;;20.10;96.50;;;;;;10362089;28;20240;-90
2023/07/01 21:14:23;;;;;;;12.60;9.10;;;20.00;95.60;;;;;;10363010;28;20293;-90
2023/07/01 21:19:26;;;;;;;8.93;7.22;;;19.90;95.40;;;;;;10345307;28;20508;-90
2023/07/01 21:24:29;;;;;;;9.30;8.23;;;19.90;96.00;;;;;;10343031;28;20227;-90
2023/07/01 21:29:31;;;;;;;11.88;8.38;;;19.80;96.20;;;;;;10367749;28;20293;-90
2023/07/01 21:34:34;;;;;;;9.13;8.07;;;19.70;95.40;;;;;;10366884;28;20247;-90
2023/07/01 21:39:36;;;;;;;10.73;7.22;;;19.80;96.60;;;;;;10368483;28;20260;-90
2023/07/01 21:44:41;;;;;;;10.52;8.48;;;19.80;96.80;;;;;;10351148;28;20290;-89
2023/07/01 21:49:43;;;;;;;12.05;8.18;;;19.80;96.60;;;;;;10368667;28;20306;-90
2023/07/01 21:54:46;;;;;;;5.65;5.13;;;19.70;95.80;;;;;;10350094;28;20711;-90
2023/07/01 21:59:48;;;;;;;7.55;6.25;;;19.70;97.70;;;;;;10369126;28;20251;-90
2023/07/01 22:04:52;;;;;;;9.10;6.72;;;19.90;97.50;;;;;;10351847;28;20766;-90
2023/07/01 22:09:55;;;;;;;10.65;8.10;;;19.80;97.40;;;;;;10367521;28;20294;-90
2023/07/01 22:14:58;;;;;;;9.55;7.32;;;19.80;97.10;;;;;;10368639;28;20290;-90
2023/07/01 22:20:01;;;;;;;11.48;7.38;;;19.70;97.30;;;;;;10369142;28;20318;-90
2023/07/01 22:25:03;;;;;;;8.25;7.40;;;19.70;96.90;;;;;;10366530;28;20600;-90
2023/07/01 22:30:07;;;;;;;8.52;7.32;;;19.80;97.30;;;;;;10369056;28;20252;-91
2023/07/01 22:35:09;;;;;;;8.18;6.88;;;19.80;97.20;;;;;;10387643;28;20266;-90
2023/07/01 22:40:12;;;;;;;11.90;8.20;;;19.70;97.90;;;;;;10369433;28;20334;-90
2023/07/01 22:45:15;;;;;;;7.15;6.10;;;19.70;97.80;;;;;;10367097;28;20282;-90
2023/07/01 22:50:21;;;;;;;9.20;7.75;;;19.70;98.60;;;;;;10366606;28;20271;-90
2023/07/01 22:55:25;;;;;;;4.88;4.47;;;19.60;98.10;;;;;;10345968;28;20276;-89
2023/07/01 23:00:28;;;;;;;9.45;6.82;;;19.80;98.60;;;;;;10328162;28;20260;-89
2023/07/01 23:05:30;;;;;;;4.75;4.35;;;20.00;96.80;;;;;;10351310;28;20592;-88
2023/07/01 23:10:33;;;;;;;5.05;4.65;;;20.10;96.50;;;;;;10369957;28;20239;-89
2023/07/01 23:15:37;;;;;;;4.25;3.85;;;20.50;96.10;;;;;;10352038;28;20244;-89
2023/07/01 23:20:40;;;;;;;6.00;4.82;;;20.80;96.00;;;;;;10332585;28;20248;-88
2023/07/01 23:25:44;;;;;;;4.75;4.25;;;21.00;94.30;;;;;;10322569;28;20248;-90
2023/07/01 23:30:47;;;;;;;6.28;4.85;;;21.30;93.40;;;;;;10311266;28;20318;-89
2023/07/01 23:35:50;;;;;;;3.65;3.35;;;21.50;92.90;;;;;;10342488;28;20235;-90
2023/07/01 23:40:53;;;;;;;8.85;4.65;;;21.30;92.30;;;;;;10367017;28;20322;-90
2023/07/01 23:45:55;;;;;;;3.88;3.42;;;21.30;90.20;;;;;;10368473;28;20909;-89
2023/07/01 23:50:58;;;;;;;4.32;3.92;;;21.40;93.20;;;;;;10368753;28;20232;-90
2023/07/01 23:56:01;;;;;;;5.28;3.70;;;21.60;91.90;;;;;;10350393;28;20267;-90
